Time;durP1;ratioP1;P1;durP2;ratioP2;P2;SDS_P1;SDS_P2;PMS_P1;PMS_P2;Temp;Humidity;BMP_temperature;BMP_pressure;BME280_temperature;BME280_humidity;BME280_pressure;Samples;Min_cycle;Max_cycle;Signal;HPM_P1;HPM_P2
2022/05/22 00:02:09;;;;;;;2.37;1.80;;;25.10;44.30;;;;;;5132168;28;20438;-81
2022/05/22 00:04:37;;;;;;;2.30;2.10;;;25.10;44.30;;;;;;5131231;28;20419;-81
2022/05/22 00:07:06;;;;;;;4.00;2.30;;;25.10;44.40;;;;;;5130284;28;20475;-80
2022/05/22 00:09:34;;;;;;;2.93;1.80;;;25.00;44.30;;;;;;5122084;28;20450;-81
2022/05/22 00:12:02;;;;;;;3.30;1.60;;;25.10;44.40;;;;;;5131824;28;20438;-81
2022/05/22 00:14:31;;;;;;;2.87;1.67;;;25.10;44.30;;;;;;5130866;28;20946;-81
2022/05/22 00:17:01;;;;;;;3.17;1.80;;;25.10;44.30;;;;;;5131347;28;20414;-80
2022/05/22 00:19:31;;;;;;;3.23;2.00;;;25.10;44.30;;;;;;5131976;28;20415;-80
2022/05/22 00:21:59;;;;;;;4.37;1.83;;;25.10;44.40;;;;;;5131934;28;20475;-81
2022/05/22 00:24:29;;;;;;;5.87;2.20;;;25.10;44.30;;;;;;5122649;28;20454;-81
2022/05/22 00:26:58;;;;;;;3.07;2.00;;;25.10;44.40;;;;;;5110595;28;20400;-81
2022/05/22 00:29:26;;;;;;;2.80;1.70;;;25.10;44.30;;;;;;5111166;28;20423;-81
2022/05/22 00:31:54;;;;;;;4.37;2.00;;;25.10;44.40;;;;;;5109948;28;20447;-81
2022/05/22 00:34:29;;;;;;;6.00;1.77;;;25.00;44.30;;;;;;5110955;28;20491;-81
2022/05/22 00:36:57;;;;;;;3.27;1.80;;;25.00;44.40;;;;;;5110785;28;20422;-81
2022/05/22 00:39:25;;;;;;;4.10;1.50;;;25.00;44.40;;;;;;5110299;28;20426;-81
2022/05/22 00:41:54;;;;;;;5.57;1.70;;;25.00;44.40;;;;;;5113227;28;20476;-81
2022/05/22 00:44:22;;;;;;;2.57;1.80;;;25.00;44.40;;;;;;5131315;28;20425;-81
2022/05/22 00:46:50;;;;;;;3.13;1.80;;;25.00;44.40;;;;;;5131164;28;20459;-81
2022/05/22 00:49:22;;;;;;;7.77;2.37;;;25.00;44.40;;;;;;5130857;28;20418;-81
2022/05/22 00:51:56;;;;;;;2.33;1.57;;;25.00;44.30;;;;;;5130649;28;20426;-81
2022/05/22 00:54:27;;;;;;;5.20;1.90;;;25.00;44.40;;;;;;5130869;28;20421;-81
2022/05/22 00:56:57;;;;;;;6.30;2.20;;;25.00;44.30;;;;;;5130848;27;20427;-81
2022/05/22 00:59:27;;;;;;;2.73;2.10;;;24.90;44.20;;;;;;5116591;28;20466;-80
2022/05/22 01:01:55;;;;;;;3.87;1.93;;;24.90;44.40;;;;;;5130562;28;20464;-82
2022/05/22 01:04:25;;;;;;;4.53;1.97;;;24.90;44.40;;;;;;5129591;28;20447;-81
2022/05/22 01:06:54;;;;;;;4.97;1.87;;;24.90;44.30;;;;;;5129919;28;20421;-81
2022/05/22 01:09:22;;;;;;;5.80;2.33;;;24.90;44.30;;;;;;5129842;28;20497;-81
2022/05/22 01:11:51;;;;;;;4.67;1.90;;;24.90;44.30;;;;;;5130266;28;20450;-82
2022/05/22 01:14:21;;;;;;;2.20;1.60;;;24.90;44.80;;;;;;5128921;28;20426;-81
2022/05/22 01:16:50;;;;;;;2.43;2.20;;;24.90;44.20;;;;;;5119239;28;20445;-82
2022/05/22 01:19:21;;;;;;;4.37;2.30;;;24.90;44.20;;;;;;5109251;28;20456;-81
2022/05/22 01:21:53;;;;;;;4.67;1.90;;;24.80;44.20;;;;;;5109169;28;20427;-81
2022/05/22 01:24:21;;;;;;;3.13;1.43;;;24.90;44.30;;;;;;5110060;28;20448;-81
2022/05/22 01:26:49;;;;;;;2.10;1.80;;;24.90;44.20;;;;;;5108487;28;20411;-80
2022/05/22 01:29:17;;;;;;;4.37;2.07;;;24.80;44.10;;;;;;5109876;28;20441;-81
2022/05/22 01:31:45;;;;;;;3.23;1.77;;;24.80;44.10;;;;;;5109226;28;20472;-81
2022/05/22 01:34:13;;;;;;;4.67;1.80;;;24.80;44.10;;;;;;5109500;28;20411;-81
2022/05/22 01:36:41;;;;;;;3.13;1.77;;;24.80;44.10;;;;;;5109666;28;20420;-81
2022/05/22 01:39:11;;;;;;;4.10;1.70;;;24.80;44.10;;;;;;5109741;28;20423;-81
2022/05/22 01:41:39;;;;;;;1.87;1.57;;;24.80;44.10;;;;;;5110066;28;20465;-81
2022/05/22 01:44:07;;;;;;;2.67;1.93;;;24.80;44.10;;;;;;5110840;28;20426;-81
2022/05/22 01:46:35;;;;;;;6.40;1.90;;;24.80;44.20;;;;;;5110422;28;20483;-81
2022/05/22 01:49:03;;;;;;;3.53;2.00;;;24.80;44.20;;;;;;5109759;28;20440;-81
2022/05/22 01:51:34;;;;;;;2.50;1.60;;;24.80;44.10;;;;;;5109572;28;20471;-81
2022/05/22 01:54:03;;;;;;;2.47;1.77;;;24.70;44.10;;;;;;5110746;28;20419;-82
2022/05/22 01:56:33;;;;;;;4.90;2.00;;;24.70;44.10;;;;;;5110590;28;20415;-82
2022/05/22 01:59:02;;;;;;;2.57;1.47;;;24.70;44.10;;;;;;5110637;28;20452;-83
2022/05/22 02:01:30;;;;;;;2.87;2.00;;;24.70;44.20;;;;;;5111626;28;20441;-82
2022/05/22 02:03:58;;;;;;;6.10;2.03;;;24.70;44.20;;;;;;5118565;28;20457;-81
2022/05/22 02:06:26;;;;;;;4.50;2.03;;;24.60;44.20;;;;;;5122055;28;20426;-84
2022/05/22 02:08:53;;;;;;;3.83;1.83;;;24.60;44.20;;;;;;5114340;28;20435;-84
2022/05/22 02:11:21;;;;;;;1.80;1.70;;;24.60;44.20;;;;;;5115655;28;20499;-85
2022/05/22 02:13:50;;;;;;;2.30;1.63;;;24.60;44.10;;;;;;5115446;28;20411;-85
2022/05/22 02:16:18;;;;;;;5.43;2.00;;;24.60;44.20;;;;;;5115171;28;20399;-86
2022/05/22 02:18:47;;;;;;;3.57;1.73;;;24.60;44.10;;;;;;5113479;28;20448;-83
2022/05/22 02:21:15;;;;;;;2.90;1.83;;;24.60;44.10;;;;;;5128335;28;20463;-85
2022/05/22 02:23:43;;;;;;;4.47;1.80;;;24.60;44.20;;;;;;5133481;28;20440;-84
2022/05/22 02:26:11;;;;;;;7.00;2.07;;;24.60;44.20;;;;;;5135095;28;20460;-83
2022/05/22 02:28:39;;;;;;;3.13;1.80;;;24.60;44.10;;;;;;5133189;28;20448;-84
2022/05/22 02:31:09;;;;;;;3.57;1.80;;;24.50;44.00;;;;;;5128994;28;20446;-84
2022/05/22 02:33:37;;;;;;;1.73;1.50;;;24.60;44.10;;;;;;5131200;28;20515;-83
2022/05/22 02:36:06;;;;;;;2.23;1.60;;;24.60;44.20;;;;;;5113435;28;20558;-84
2022/05/22 02:38:34;;;;;;;3.40;2.10;;;24.60;44.00;;;;;;5131225;28;20391;-84
2022/05/22 02:41:10;;;;;;;2.23;1.73;;;24.60;44.00;;;;;;5134326;28;20448;-83
2022/05/22 02:43:38;;;;;;;2.60;1.70;;;24.50;44.10;;;;;;5134725;28;20406;-85
2022/05/22 02:46:10;;;;;;;2.37;1.87;;;24.50;44.10;;;;;;5134547;28;20451;-84
2022/05/22 02:48:38;;;;;;;2.90;1.70;;;24.50;44.10;;;;;;5134999;28;20374;-84
2022/05/22 02:51:06;;;;;;;2.20;1.70;;;24.50;44.20;;;;;;5134650;28;20476;-83
2022/05/22 02:53:34;;;;;;;1.70;1.60;;;24.40;44.00;;;;;;5128598;28;20456;-84
2022/05/22 02:56:07;;;;;;;2.17;1.70;;;24.40;44.00;;;;;;5126782;28;20407;-84
2022/05/22 02:58:36;;;;;;;3.07;1.77;;;24.50;44.10;;;;;;5134895;28;20415;-83
2022/05/22 03:01:04;;;;;;;4.63;2.20;;;24.40;44.00;;;;;;5134211;28;20471;-83
2022/05/22 03:03:34;;;;;;;2.03;1.70;;;24.50;44.10;;;;;;5133688;28;20430;-83
2022/05/22 03:08:47;;;;;;;3.30;1.80;;;24.40;44.10;;;;;;5132962;28;20499;-84
2022/05/22 03:11:15;;;;;;;2.13;1.70;;;24.40;44.10;;;;;;5134309;28;20472;-87
2022/05/22 03:13:43;;;;;;;2.57;1.70;;;24.40;44.00;;;;;;5114915;28;20432;-85
2022/05/22 03:16:12;;;;;;;2.13;1.50;;;24.40;44.00;;;;;;5113602;28;20415;-86
2022/05/22 03:18:41;;;;;;;5.13;1.97;;;24.30;44.00;;;;;;5113133;28;20868;-85
2022/05/22 03:21:09;;;;;;;1.73;1.60;;;24.40;44.00;;;;;;5112776;28;20435;-84
2022/05/22 03:23:38;;;;;;;2.10;1.80;;;24.40;44.00;;;;;;5112682;28;20414;-85
2022/05/22 03:26:06;;;;;;;1.73;1.63;;;24.40;44.00;;;;;;5115037;28;20468;-85
2022/05/22 03:28:34;;;;;;;2.30;1.77;;;24.40;43.90;;;;;;5134168;28;20414;-85
2022/05/22 03:31:02;;;;;;;1.63;1.53;;;24.40;43.80;;;;;;5132206;28;20491;-84
2022/05/22 03:33:30;;;;;;;2.93;1.87;;;24.40;43.90;;;;;;5132257;28;20511;-83
2022/05/22 03:35:59;;;;;;;2.00;1.70;;;24.40;43.80;;;;;;5131777;28;20489;-85
2022/05/22 03:38:27;;;;;;;4.07;1.80;;;24.40;43.80;;;;;;5132155;28;20444;-83
2022/05/22 03:40:55;;;;;;;4.20;2.00;;;24.40;43.80;;;;;;5132264;28;20468;-85
2022/05/22 03:43:23;;;;;;;3.20;1.80;;;24.40;43.90;;;;;;5127026;28;20431;-86
2022/05/22 03:45:51;;;;;;;2.60;1.70;;;24.30;43.70;;;;;;5111406;28;20439;-84
2022/05/22 03:48:19;;;;;;;2.40;1.60;;;24.40;43.80;;;;;;5111293;28;20441;-84
2022/05/22 03:50:48;;;;;;;5.00;2.00;;;24.40;43.80;;;;;;5112593;28;20487;-84
2022/05/22 03:53:17;;;;;;;2.93;1.63;;;24.30;43.60;;;;;;5113101;28;20476;-86
2022/05/22 03:55:47;;;;;;;2.43;1.87;;;24.30;43.60;;;;;;5112447;28;20444;-85
2022/05/22 03:58:16;;;;;;;2.83;1.60;;;24.30;43.60;;;;;;5114264;28;20433;-85
2022/05/22 04:00:44;;;;;;;1.70;1.60;;;24.30;43.60;;;;;;5124030;28;20480;-85
2022/05/22 04:03:13;;;;;;;4.10;1.87;;;24.30;43.60;;;;;;5132626;28;20407;-83
2022/05/22 04:05:41;;;;;;;1.73;1.60;;;24.30;43.60;;;;;;5133726;28;20435;-82
2022/05/22 04:08:09;;;;;;;3.63;1.87;;;24.40;43.60;;;;;;5133515;28;20447;-83
2022/05/22 04:10:38;;;;;;;1.87;1.73;;;24.40;43.60;;;;;;5134113;28;20467;-82
2022/05/22 04:13:06;;;;;;;1.80;1.70;;;24.30;43.50;;;;;;5133598;28;20439;-83
2022/05/22 04:15:34;;;;;;;1.60;1.50;;;24.30;43.50;;;;;;5125230;27;20437;-84
2022/05/22 04:18:03;;;;;;;2.10;2.00;;;24.40;43.60;;;;;;5121280;28;20415;-83
2022/05/22 04:20:31;;;;;;;1.60;1.50;;;24.40;43.50;;;;;;5121073;28;20460;-84
2022/05/22 04:25:54;;;;;;;3.67;2.20;;;24.30;43.30;;;;;;5112612;28;20422;-83
2022/05/22 04:28:22;;;;;;;2.40;1.70;;;24.30;43.40;;;;;;5111926;28;20436;-82
2022/05/22 04:30:50;;;;;;;1.87;1.60;;;24.30;43.40;;;;;;5110969;28;20454;-81
2022/05/22 04:33:19;;;;;;;2.20;1.50;;;24.30;43.40;;;;;;5111229;28;20461;-83
2022/05/22 04:35:47;;;;;;;2.83;1.60;;;24.30;43.40;;;;;;5130442;28;20425;-83
2022/05/22 04:38:15;;;;;;;1.70;1.60;;;24.30;43.40;;;;;;5132088;28;20468;-83
2022/05/22 04:40:43;;;;;;;2.20;1.30;;;24.40;44.10;;;;;;5131187;28;21049;-82
2022/05/22 04:43:12;;;;;;;2.60;1.83;;;24.30;43.40;;;;;;5131188;28;20452;-83
2022/05/22 04:45:41;;;;;;;4.20;1.53;;;24.30;43.30;;;;;;5131754;28;20440;-83
2022/05/22 04:48:09;;;;;;;6.13;1.60;;;24.30;43.40;;;;;;5132491;28;20500;-82
2022/05/22 04:50:37;;;;;;;3.70;1.87;;;24.30;43.50;;;;;;5116259;28;20472;-82
2022/05/22 04:53:05;;;;;;;2.07;1.37;;;24.30;43.40;;;;;;5131926;28;20443;-82
2022/05/22 04:55:33;;;;;;;2.60;1.70;;;24.30;43.40;;;;;;5132828;28;20436;-82
2022/05/22 04:58:01;;;;;;;1.73;1.40;;;24.40;43.50;;;;;;5132428;28;20459;-82
2022/05/22 05:00:31;;;;;;;1.73;1.50;;;24.40;43.30;;;;;;5132864;28;20442;-82
2022/05/22 05:02:58;;;;;;;2.07;1.90;;;24.40;43.30;;;;;;5131727;28;20463;-82
2022/05/22 05:05:27;;;;;;;5.87;1.60;;;24.40;43.30;;;;;;5123928;28;20448;-82
2022/05/22 05:07:55;;;;;;;4.50;1.90;;;24.40;43.30;;;;;;5131019;28;20431;-82
2022/05/22 05:10:26;;;;;;;2.03;1.30;;;24.40;43.30;;;;;;5130498;28;20433;-83
2022/05/22 05:12:55;;;;;;;2.30;1.77;;;24.40;43.30;;;;;;5130915;28;20471;-84
2022/05/22 05:15:24;;;;;;;1.90;1.80;;;24.40;43.20;;;;;;5131399;28;20451;-84
2022/05/22 05:17:53;;;;;;;3.80;1.93;;;24.40;43.20;;;;;;5129938;28;20443;-82
2022/05/22 05:20:23;;;;;;;4.63;1.70;;;24.40;43.10;;;;;;5130471;28;20453;-82
2022/05/22 05:22:51;;;;;;;3.70;2.17;;;24.40;43.20;;;;;;5122095;28;20994;-83
2022/05/22 05:25:19;;;;;;;3.60;1.57;;;24.50;43.20;;;;;;5129759;28;20447;-82
2022/05/22 05:27:52;;;;;;;3.00;1.57;;;24.40;43.20;;;;;;5128656;28;20489;-82
2022/05/22 05:30:20;;;;;;;2.47;1.90;;;24.40;43.20;;;;;;5127181;28;20446;-82
2022/05/22 05:32:48;;;;;;;8.20;1.50;;;24.40;43.20;;;;;;5127249;28;20474;-82
2022/05/22 05:35:17;;;;;;;2.13;1.73;;;24.40;43.10;;;;;;5123481;28;20516;-82
2022/05/22 05:37:46;;;;;;;1.87;1.77;;;24.50;43.20;;;;;;5125899;28;20446;-82
2022/05/22 05:40:14;;;;;;;2.13;1.70;;;24.50;43.20;;;;;;5108630;28;20522;-83
2022/05/22 05:42:42;;;;;;;3.73;1.50;;;24.50;43.80;;;;;;5107084;28;20433;-83
2022/05/22 05:45:12;;;;;;;2.67;1.97;;;24.50;43.20;;;;;;5106709;28;20460;-82
2022/05/22 05:47:40;;;;;;;2.87;1.67;;;24.50;43.20;;;;;;5116199;28;20431;-82
2022/05/22 05:50:09;;;;;;;1.80;1.40;;;24.50;43.10;;;;;;5107742;28;20457;-83
2022/05/22 05:52:39;;;;;;;4.27;2.10;;;24.50;43.00;;;;;;5116367;28;20469;-83
2022/05/22 05:55:07;;;;;;;2.43;1.70;;;24.50;43.10;;;;;;5125718;28;20448;-83
2022/05/22 05:57:36;;;;;;;1.83;1.63;;;24.60;43.10;;;;;;5125949;28;20439;-83
2022/05/22 06:00:06;;;;;;;2.40;1.87;;;24.60;43.10;;;;;;5125343;28;20464;-83
2022/05/22 06:02:34;;;;;;;1.67;1.50;;;24.50;43.10;;;;;;5126775;28;20460;-84
2022/05/22 06:05:02;;;;;;;2.43;1.63;;;24.50;43.00;;;;;;5126477;28;20448;-83
2022/05/22 06:07:30;;;;;;;2.60;1.60;;;24.60;43.20;;;;;;5129349;28;20450;-83
2022/05/22 06:10:00;;;;;;;2.87;1.77;;;24.50;43.10;;;;;;5058688;28;1237812;-84
2022/05/22 06:12:28;;;;;;;1.80;1.70;;;24.60;43.10;;;;;;5125092;28;20215;-84
2022/05/22 06:14:56;;;;;;;2.30;1.67;;;24.60;43.00;;;;;;5128479;28;20443;-84
2022/05/22 06:17:30;;;;;;;1.60;1.50;;;24.60;43.00;;;;;;5124585;28;20448;-83
2022/05/22 06:19:58;;;;;;;2.60;1.70;;;24.60;43.00;;;;;;5122149;28;20459;-82
2022/05/22 06:22:32;;;;;;;9.90;1.60;;;24.60;43.10;;;;;;5129344;28;20443;-83
2022/05/22 06:25:02;;;;;;;1.47;1.37;;;24.60;43.00;;;;;;5125225;28;20415;-81
2022/05/22 06:27:30;;;;;;;4.43;1.83;;;24.70;43.10;;;;;;5129802;28;20406;-84
2022/05/22 06:29:58;;;;;;;1.70;1.60;;;24.70;43.00;;;;;;5128645;28;20419;-83
2022/05/22 06:32:26;;;;;;;2.97;1.63;;;24.70;42.90;;;;;;5127212;28;20893;-83
2022/05/22 06:34:54;;;;;;;3.37;1.87;;;24.70;43.00;;;;;;5120559;28;20426;-82
2022/05/22 06:37:23;;;;;;;3.70;2.00;;;24.80;42.90;;;;;;5128775;28;20464;-83
2022/05/22 06:39:50;;;;;;;3.00;1.97;;;24.80;42.90;;;;;;5129553;28;20395;-83
2022/05/22 06:42:23;;;;;;;2.20;1.70;;;24.80;42.90;;;;;;5122728;28;20452;-82
2022/05/22 06:44:55;;;;;;;2.10;1.40;;;24.90;43.00;;;;;;5129157;28;20424;-83
2022/05/22 06:47:24;;;;;;;3.17;1.80;;;24.90;42.90;;;;;;5130918;28;20443;-83
2022/05/22 06:49:52;;;;;;;2.00;1.27;;;25.00;42.80;;;;;;5130055;28;20488;-84
2022/05/22 06:52:20;;;;;;;4.67;1.90;;;25.00;42.80;;;;;;5130071;28;20411;-83
2022/05/22 06:54:48;;;;;;;3.00;1.70;;;25.00;42.60;;;;;;5133863;28;20438;-83
2022/05/22 06:57:17;;;;;;;1.70;1.60;;;25.10;42.60;;;;;;5134747;28;20414;-83
2022/05/22 06:59:47;;;;;;;3.43;1.80;;;25.10;42.50;;;;;;5125768;28;20444;-83
2022/05/22 07:02:15;;;;;;;2.97;1.40;;;25.10;42.50;;;;;;5128388;28;20430;-81
2022/05/22 07:04:43;;;;;;;1.60;1.40;;;25.20;42.50;;;;;;5134071;28;20449;-83
2022/05/22 07:07:11;;;;;;;2.37;1.47;;;25.20;42.40;;;;;;5134861;28;20419;-84
2022/05/22 07:09:39;;;;;;;4.40;1.90;;;25.30;42.40;;;;;;5133489;28;20471;-83
2022/05/22 07:12:08;;;;;;;2.50;1.40;;;25.40;42.20;;;;;;5134915;28;20450;-85
2022/05/22 07:14:36;;;;;;;3.53;1.70;;;25.40;42.20;;;;;;5132265;28;20453;-84
2022/05/22 07:17:06;;;;;;;5.33;1.50;;;25.50;42.10;;;;;;5129594;28;20448;-83
2022/05/22 07:19:37;;;;;;;1.50;1.40;;;25.60;42.00;;;;;;5131247;28;20440;-83
2022/05/22 07:22:05;;;;;;;2.53;1.40;;;25.60;41.90;;;;;;5131505;28;20431;-84
2022/05/22 07:24:34;;;;;;;2.80;1.50;;;25.70;41.80;;;;;;5130376;28;20440;-86
2022/05/22 07:27:02;;;;;;;2.63;1.47;;;25.80;41.60;;;;;;5130864;28;20451;-83
2022/05/22 07:56:49;;;;;;;4.20;1.57;;;26.30;41.50;;;;;;5114304;28;20531;-84
2022/05/22 07:59:18;;;;;;;2.20;1.60;;;26.30;41.00;;;;;;5117747;28;20443;-82
2022/05/22 08:01:46;;;;;;;2.70;1.57;;;26.40;41.10;;;;;;5118395;28;20456;-82
2022/05/22 08:04:15;;;;;;;1.53;1.43;;;26.60;41.30;;;;;;5126220;28;20422;-82
2022/05/22 08:06:43;;;;;;;2.00;1.10;;;26.60;41.30;;;;;;5132133;28;20478;-82
2022/05/22 08:09:11;;;;;;;1.93;1.50;;;26.70;41.20;;;;;;5133368;28;20430;-83
2022/05/22 08:11:38;;;;;;;1.63;1.53;;;26.80;41.00;;;;;;5134285;28;20465;-84
2022/05/22 08:14:06;;;;;;;1.60;1.40;;;26.90;41.00;;;;;;5134438;28;20467;-83
2022/05/22 08:16:36;;;;;;;2.73;1.37;;;27.00;40.80;;;;;;5134596;28;20418;-84
2022/05/22 08:19:04;;;;;;;1.90;1.40;;;27.10;40.80;;;;;;5134321;28;20633;-84
2022/05/22 08:21:32;;;;;;;2.13;1.40;;;27.20;40.40;;;;;;5133180;28;20457;-83
2022/05/22 08:24:00;;;;;;;4.20;1.73;;;27.30;40.40;;;;;;5126062;28;20413;-83
2022/05/22 08:26:29;;;;;;;3.73;1.40;;;27.40;40.10;;;;;;5133834;28;20426;-84
2022/05/22 08:28:57;;;;;;;1.57;1.30;;;27.50;39.90;;;;;;5134568;28;20513;-84
2022/05/22 08:31:25;;;;;;;2.07;1.33;;;27.50;39.70;;;;;;5133872;28;20523;-83
2022/05/22 08:33:55;;;;;;;1.30;1.20;;;27.50;39.80;;;;;;5133759;28;20475;-83
2022/05/22 08:36:23;;;;;;;2.00;1.60;;;27.40;39.60;;;;;;5133660;27;20425;-83
2022/05/22 08:38:51;;;;;;;6.03;1.70;;;27.40;39.60;;;;;;5116837;28;20419;-83
2022/05/22 08:41:21;;;;;;;2.90;1.40;;;27.30;39.60;;;;;;5133813;28;20439;-83
2022/05/22 08:43:53;;;;;;;4.17;1.57;;;27.50;39.80;;;;;;5133745;28;20844;-83
2022/05/22 08:46:27;;;;;;;4.93;1.30;;;27.60;39.90;;;;;;5132675;28;20478;-83
2022/05/22 08:49:05;;;;;;;1.97;1.30;;;27.70;39.80;;;;;;5128742;28;20441;-83
2022/05/22 08:51:37;;;;;;;1.87;1.20;;;27.80;39.50;;;;;;5125832;28;20516;-83
2022/05/22 08:54:16;;;;;;;1.53;1.43;;;27.90;39.30;;;;;;5125631;27;20439;-83
2022/05/22 08:59:32;;;;;;;2.17;1.37;;;28.10;39.00;;;;;;5133862;28;20414;-83
2022/05/22 09:02:04;;;;;;;2.20;1.70;;;28.10;39.00;;;;;;5133759;28;20419;-83
2022/05/22 09:04:37;;;;;;;1.63;1.20;;;28.20;38.90;;;;;;5133353;28;20493;-84
2022/05/22 09:07:12;;;;;;;3.70;1.47;;;28.20;38.60;;;;;;5133730;28;20427;-84
2022/05/22 09:09:41;;;;;;;2.90;1.60;;;28.10;38.40;;;;;;5133540;28;20426;-84
2022/05/22 09:12:22;;;;;;;2.37;1.20;;;28.20;38.60;;;;;;5116391;28;20444;-84
2022/05/22 09:14:53;;;;;;;1.37;1.27;;;28.30;38.50;;;;;;5132748;28;20460;-83
2022/05/22 09:17:23;;;;;;;1.40;1.30;;;28.30;38.40;;;;;;5133835;28;20407;-84
2022/05/22 09:19:55;;;;;;;4.10;1.40;;;28.40;38.30;;;;;;5133459;28;20414;-84
2022/05/22 09:22:24;;;;;;;3.50;1.30;;;28.40;38.20;;;;;;5133650;28;20469;-84
2022/05/22 09:25:09;;;;;;;1.80;1.20;;;28.50;38.10;;;;;;5133221;28;20418;-84
2022/05/22 09:39:03;;;;;;;2.17;1.03;;;28.50;37.70;;;;;;5112587;28;20934;-84
2022/05/22 09:41:44;;;;;;;1.90;0.90;;;28.50;37.60;;;;;;5112430;28;20456;-84
2022/05/22 09:44:31;;;;;;;2.50;1.40;;;28.70;37.80;;;;;;5120138;28;20423;-83
2022/05/22 09:47:30;;;;;;;2.07;1.83;;;28.70;37.40;;;;;;5112370;28;20448;-83
2022/05/22 09:50:20;;;;;;;3.03;1.53;;;28.70;37.40;;;;;;5112491;28;20471;-83
2022/05/22 09:52:54;;;;;;;3.90;1.23;;;28.80;37.30;;;;;;5112664;28;20440;-83
2022/05/22 09:55:44;;;;;;;2.23;1.60;;;28.80;37.20;;;;;;5112631;28;20463;-84
2022/05/22 09:58:36;;;;;;;2.07;1.20;;;28.80;37.10;;;;;;5113416;28;20441;-84
2022/05/22 10:01:10;;;;;;;2.57;1.20;;;28.80;37.00;;;;;;5123678;28;20469;-82
2022/05/22 10:03:43;;;;;;;2.10;1.10;;;28.90;37.20;;;;;;5129637;28;20499;-82
2022/05/22 10:06:14;;;;;;;1.23;1.13;;;29.10;36.90;;;;;;5132082;28;20440;-82
2022/05/22 10:08:47;;;;;;;1.37;1.20;;;29.10;36.50;;;;;;5131582;28;20407;-83
2022/05/22 10:11:21;;;;;;;1.20;1.10;;;29.10;36.30;;;;;;5132029;28;20463;-82
2022/05/22 10:13:56;;;;;;;2.10;1.30;;;29.00;36.30;;;;;;5131513;28;20424;-83
2022/05/22 10:16:30;;;;;;;1.23;1.10;;;29.00;36.40;;;;;;5130629;28;20455;-82
2022/05/22 10:19:07;;;;;;;2.30;1.03;;;29.10;36.50;;;;;;5111305;28;20429;-83
2022/05/22 10:21:40;;;;;;;1.27;1.10;;;29.20;36.00;;;;;;5111064;28;20451;-85
2022/05/22 10:24:13;;;;;;;4.87;1.60;;;29.10;35.90;;;;;;5112754;28;20436;-83
2022/05/22 10:26:51;;;;;;;2.00;1.40;;;29.00;35.60;;;;;;5111304;28;20436;-82
2022/05/22 10:29:22;;;;;;;2.43;1.53;;;29.00;35.80;;;;;;5112899;28;20448;-83
2022/05/22 10:31:57;;;;;;;2.83;1.20;;;29.00;35.80;;;;;;5127086;28;20489;-83
2022/05/22 10:34:32;;;;;;;2.70;1.40;;;29.10;36.20;;;;;;5135749;28;20458;-83
2022/05/22 10:37:04;;;;;;;1.73;0.93;;;29.10;35.90;;;;;;5115764;28;20436;-83
2022/05/22 10:39:32;;;;;;;2.13;1.00;;;29.20;35.60;;;;;;5115874;28;20442;-83
2022/05/22 10:44:46;;;;;;;1.10;0.90;;;29.30;35.80;;;;;;5107194;28;20452;-83
2022/05/22 10:47:14;;;;;;;1.50;1.07;;;29.40;35.30;;;;;;5115705;28;20456;-83
2022/05/22 10:49:43;;;;;;;6.57;1.30;;;29.70;35.20;;;;;;5115962;28;20450;-83
2022/05/22 10:52:12;;;;;;;1.10;0.90;;;29.90;34.80;;;;;;5122584;28;20410;-83
2022/05/22 10:54:45;;;;;;;1.53;0.90;;;30.00;34.40;;;;;;5134018;28;20432;-82
2022/05/22 10:57:16;;;;;;;1.20;1.00;;;30.00;34.10;;;;;;5137326;28;20501;-83
2022/05/22 10:59:44;;;;;;;1.10;1.00;;;30.00;34.10;;;;;;5136573;28;20402;-82
2022/05/22 11:02:18;;;;;;;1.90;1.00;;;29.90;34.10;;;;;;5136216;28;20436;-83
2022/05/22 11:04:47;;;;;;;1.70;1.03;;;29.80;34.20;;;;;;5136976;28;20443;-83
2022/05/22 11:07:27;;;;;;;1.63;1.00;;;29.70;34.20;;;;;;5135304;28;20496;-83
2022/05/22 11:09:56;;;;;;;0.93;0.90;;;29.70;34.20;;;;;;5126902;28;20435;-83
2022/05/22 11:12:26;;;;;;;2.60;1.27;;;29.60;34.10;;;;;;5135487;28;20442;-83
2022/05/22 11:15:07;;;;;;;1.20;0.90;;;29.50;34.30;;;;;;5135417;28;20464;-82
2022/05/22 11:17:35;;;;;;;1.20;0.93;;;29.90;34.60;;;;;;5135312;28;20443;-83
2022/05/22 11:20:10;;;;;;;1.00;1.00;;;31.00;33.60;;;;;;5135503;28;20448;-83
2022/05/22 11:22:39;;;;;;;1.33;1.00;;;31.70;31.40;;;;;;5135684;28;20513;-83
2022/05/22 11:25:15;;;;;;;1.87;1.10;;;31.00;31.50;;;;;;5121520;28;20449;-82
2022/05/22 11:27:57;;;;;;;1.10;1.00;;;30.60;32.20;;;;;;5129198;28;20439;-82
2022/05/22 11:30:31;;;;;;;14.73;1.40;;;30.30;32.50;;;;;;5115006;28;20457;-83
2022/05/22 11:33:13;;;;;;;1.20;0.93;;;30.70;32.90;;;;;;5114382;28;20457;-82
2022/05/22 11:35:45;;;;;;;2.90;1.30;;;30.40;32.20;;;;;;5114397;28;20488;-83
2022/05/22 11:38:23;;;;;;;1.70;0.90;;;30.10;32.50;;;;;;5114478;28;20466;-82
2022/05/22 11:40:55;;;;;;;2.53;0.90;;;29.90;32.70;;;;;;5118092;28;20486;-82
2022/05/22 11:43:47;;;;;;;2.50;1.10;;;30.00;32.80;;;;;;5125892;28;20432;-82
2022/05/22 11:46:19;;;;;;;2.80;1.10;;;29.90;32.30;;;;;;5132940;28;20440;-83
2022/05/22 11:48:53;;;;;;;2.07;1.10;;;31.00;31.20;;;;;;5135788;28;20457;-83
2022/05/22 11:51:32;;;;;;;1.73;1.10;;;30.70;31.50;;;;;;5134169;28;20445;-82
2022/05/22 11:54:32;;;;;;;1.37;1.10;;;30.50;31.80;;;;;;5135449;28;20459;-83
2022/05/22 11:57:07;;;;;;;2.30;1.10;;;30.30;32.30;;;;;;5134077;28;20483;-82
2022/05/22 11:59:58;;;;;;;2.20;0.90;;;31.10;33.20;;;;;;5116721;28;20455;-82
2022/05/22 12:02:28;;;;;;;1.27;0.83;;;32.90;30.00;;;;;;5114388;28;20466;-83
2022/05/22 12:05:06;;;;;;;1.40;0.93;;;34.00;29.30;;;;;;5113806;28;20472;-83
2022/05/22 12:08:09;;;;;;;1.87;1.00;;;34.90;27.80;;;;;;5113916;28;20530;-83
2022/05/22 12:10:41;;;;;;;0.87;0.87;;;34.60;27.60;;;;;;5088154;28;20497;-83
2022/05/22 12:13:13;;;;;;;2.10;1.10;;;35.40;27.00;;;;;;5125435;28;20457;-84
2022/05/22 12:15:47;;;;;;;0.90;0.80;;;35.50;27.00;;;;;;5132196;28;20485;-83
2022/05/22 12:18:34;;;;;;;1.10;1.00;;;35.40;26.30;;;;;;5133231;28;20465;-84
2022/05/22 12:21:05;;;;;;;4.60;1.03;;;35.40;26.10;;;;;;5134510;28;20472;-84
2022/05/22 12:23:36;;;;;;;1.27;0.90;;;36.10;26.70;;;;;;5134236;28;20431;-84
2022/05/22 12:26:07;;;;;;;0.80;0.80;;;36.90;25.60;;;;;;5134601;28;20431;-82
2022/05/22 12:28:39;;;;;;;1.30;1.20;;;35.50;25.40;;;;;;5127729;28;20456;-82
2022/05/22 12:31:11;;;;;;;1.30;1.20;;;35.40;27.00;;;;;;5124301;28;20464;-84
2022/05/22 12:33:41;;;;;;;0.90;0.90;;;35.40;26.10;;;;;;5131398;28;20500;-84
2022/05/22 12:36:09;;;;;;;1.10;1.00;;;34.50;27.00;;;;;;5132425;28;20464;-82
2022/05/22 12:38:42;;;;;;;1.53;1.00;;;34.10;27.70;;;;;;5132695;28;20459;-84
2022/05/22 12:41:16;;;;;;;6.00;0.90;;;34.20;27.80;;;;;;5133145;28;20463;-85
2022/05/22 12:43:44;;;;;;;1.40;1.10;;;34.70;27.10;;;;;;5133896;28;20444;-84
2022/05/22 12:46:15;;;;;;;3.10;1.00;;;34.20;26.80;;;;;;5120165;28;20467;-85
2022/05/22 12:48:45;;;;;;;1.50;1.10;;;33.40;27.50;;;;;;5127598;28;20448;-85
2022/05/22 12:51:17;;;;;;;5.50;0.90;;;32.80;28.30;;;;;;5130354;28;20460;-85
2022/05/22 12:53:49;;;;;;;2.50;1.00;;;32.20;29.10;;;;;;5130328;28;20953;-85
2022/05/22 12:56:24;;;;;;;9.93;1.20;;;32.40;29.80;;;;;;5131088;28;20456;-86
2022/05/22 12:58:54;;;;;;;5.90;1.10;;;33.00;29.30;;;;;;5130506;28;20511;-86
2022/05/22 13:01:45;;;;;;;4.50;1.00;;;32.80;28.80;;;;;;5130152;28;20460;-86
2022/05/22 13:04:23;;;;;;;2.07;1.10;;;33.00;29.20;;;;;;5107493;28;20935;-85
2022/05/22 13:06:54;;;;;;;2.60;1.50;;;33.30;28.90;;;;;;5109429;28;20474;-85
2022/05/22 13:09:24;;;;;;;9.20;1.50;;;33.30;28.50;;;;;;5110177;28;20445;-85
2022/05/22 13:12:02;;;;;;;4.97;1.63;;;33.00;28.30;;;;;;5111447;28;20446;-84
2022/05/22 13:14:33;;;;;;;1.73;1.30;;;32.50;29.00;;;;;;5111096;28;20494;-85
2022/05/22 13:17:03;;;;;;;2.80;1.50;;;32.00;30.00;;;;;;5110101;28;20468;-84
2022/05/22 13:19:34;;;;;;;2.60;1.37;;;31.60;30.00;;;;;;5118620;28;20479;-85
2022/05/22 13:22:09;;;;;;;2.60;1.27;;;31.40;30.20;;;;;;5110263;28;20502;-85
2022/05/22 13:24:38;;;;;;;4.13;1.50;;;31.10;30.70;;;;;;5108189;28;20444;-80
2022/05/22 13:27:07;;;;;;;4.63;1.67;;;30.80;31.00;;;;;;5116101;28;20440;-83
2022/05/22 13:29:45;;;;;;;3.77;1.60;;;30.70;31.40;;;;;;5117443;28;20440;-81
2022/05/22 13:32:16;;;;;;;3.67;1.50;;;30.40;31.70;;;;;;5110356;28;20590;-82
2022/05/22 13:34:44;;;;;;;7.40;1.70;;;30.20;32.20;;;;;;5112555;28;20423;-81
2022/05/22 13:37:14;;;;;;;4.10;1.47;;;30.00;32.60;;;;;;5105572;28;20477;-82
2022/05/22 13:39:48;;;;;;;4.60;1.37;;;29.90;32.90;;;;;;5110947;28;20423;-81
2022/05/22 13:42:38;;;;;;;6.60;1.70;;;29.70;33.10;;;;;;5098539;28;20464;-82
2022/05/22 13:45:32;;;;;;;2.50;1.60;;;29.80;33.50;;;;;;5101036;28;20445;-82
2022/05/22 13:48:40;;;;;;;3.17;1.60;;;29.90;33.50;;;;;;5123220;28;20441;-82
2022/05/22 13:54:05;;;;;;;15.03;2.00;;;30.10;33.50;;;;;;5127841;28;20447;-83
2022/05/22 13:56:38;;;;;;;3.90;1.37;;;30.00;33.40;;;;;;5121218;28;20450;-81
2022/05/22 13:59:09;;;;;;;3.43;1.10;;;30.00;33.50;;;;;;5121600;28;20414;-81